Time;durP1;ratioP1;P1;durP2;ratioP2;P2;SDS_P1;SDS_P2;PMS_P1;PMS_P2;Temp;Humidity;BMP_temperature;BMP_pressure;BME280_temperature;BME280_humidity;BME280_pressure;Samples;Min_cycle;Max_cycle;Signal;HPM_P1;HPM_P2
2023/06/13 00:01:49;;;;;;;5.43;3.63;;;;;;;24.52;28.86;101336.09;4990123;28;124483;-60
2023/06/13 00:04:21;;;;;;;5.40;3.70;;;;;;;24.46;28.90;101331.25;4989851;28;114136;-61
2023/06/13 00:06:56;;;;;;;5.72;3.67;;;;;;;24.40;28.84;101334.56;4991257;28;114105;-59
2023/06/13 00:09:24;;;;;;;;;;;;;;;24.29;28.46;101328.31;4988154;28;124265;-60
2023/06/13 00:11:52;;;;;;;6.32;3.58;;;;;;;24.26;28.70;101330.44;4987834;28;124021;-60
2023/06/13 00:14:21;;;;;;;5.65;3.70;;;;;;;24.19;28.93;101324.78;4989832;28;115054;-60
2023/06/13 00:16:48;;;;;;;4.35;3.50;;;;;;;24.11;28.93;101327.38;4975496;28;113821;-60
2023/06/13 00:19:17;;;;;;;5.43;3.80;;;;;;;24.04;29.15;101331.66;4987555;28;123952;-60
2023/06/13 00:21:47;;;;;;;10.88;3.90;;;;;;;23.98;29.12;101321.41;4987406;28;124005;-60
2023/06/13 00:24:14;;;;;;;8.68;3.80;;;;;;;23.92;29.27;101330.09;4988902;28;114382;-60
2023/06/13 00:26:42;;;;;;;8.50;3.85;;;;;;;23.85;29.42;101322.56;4988761;28;114109;-60
2023/06/13 00:29:09;;;;;;;7.22;3.58;;;;;;;23.80;29.44;101324.00;4990623;28;124395;-60
2023/06/13 00:31:37;;;;;;;5.13;3.75;;;;;;;23.74;29.67;101328.09;4987969;28;123948;-60
2023/06/13 00:34:04;;;;;;;4.63;3.63;;;;;;;23.69;29.74;101324.97;4988490;28;114286;-60
2023/06/13 00:36:37;;;;;;;6.93;3.70;;;;;;;23.66;29.76;101322.56;4973452;28;114337;-60
2023/06/13 00:39:06;;;;;;;7.47;4.00;;;;;;;23.62;29.86;101329.22;4989472;28;122978;-61
2023/06/13 00:41:34;;;;;;;6.20;4.22;;;;;;;23.58;29.96;101319.69;4987601;28;124937;-60
2023/06/13 00:44:01;;;;;;;4.93;3.97;;;;;;;23.52;30.05;101321.97;4988429;28;113431;-61
2023/06/13 00:46:34;;;;;;;7.00;4.10;;;;;;;23.47;30.08;101323.38;4989089;28;113075;-60
2023/06/13 00:49:04;;;;;;;10.32;3.78;;;;;;;23.41;30.22;101319.41;4975604;28;124154;-60
2023/06/13 00:51:40;;;;;;;8.73;4.38;;;;;;;23.36;30.49;101326.22;4976051;28;124203;-59
2023/06/13 00:54:10;;;;;;;8.45;3.85;;;;;;;23.28;30.52;101329.63;4988697;28;115528;-60
2023/06/13 00:56:37;;;;;;;6.00;4.50;;;;;;;23.20;30.71;101326.78;4990216;28;113921;-60
2023/06/13 00:59:05;;;;;;;8.25;4.28;;;;;;;23.12;30.74;101328.31;4984930;28;124091;-60
2023/06/13 01:01:32;;;;;;;5.80;3.67;;;;;;;23.07;30.92;101327.88;4988315;28;123385;-61
2023/06/13 01:04:00;;;;;;;5.50;3.85;;;;;;;23.02;31.00;101327.44;4988194;28;113524;-60
2023/06/13 01:06:30;;;;;;;6.72;4.18;;;;;;;22.97;31.11;101332.38;4972303;28;112872;-60
2023/06/13 01:09:00;;;;;;;7.07;3.80;;;;;;;22.94;31.23;101316.44;4989956;28;123937;-60
2023/06/13 01:11:37;;;;;;;5.80;4.00;;;;;;;22.89;31.50;101321.44;4986664;28;124026;-60
2023/06/13 01:14:16;;;;;;;7.60;3.90;;;;;;;22.85;31.52;101322.66;4988079;28;113378;-60
2023/06/13 01:16:47;;;;;;;6.40;4.22;;;;;;;22.80;31.53;101319.56;4989580;28;112939;-60
2023/06/13 01:19:39;;;;;;;6.97;3.80;;;;;;;22.74;31.53;101311.00;4984560;28;124217;-60
2023/06/13 01:22:13;;;;;;;5.32;3.85;;;;;;;22.69;31.57;101313.25;4991668;28;123020;-60
2023/06/13 01:24:58;;;;;;;7.23;4.07;;;;;;;22.67;31.75;101315.22;4986026;28;115207;-60
2023/06/13 01:27:28;;;;;;;8.50;4.35;;;;;;;22.61;31.89;101304.97;4988746;28;114369;-60
2023/06/13 01:30:00;;;;;;;7.65;4.53;;;;;;;22.55;32.19;101309.09;4988143;28;123276;-60
2023/06/13 01:32:30;;;;;;;8.40;4.50;;;;;;;22.49;32.38;101306.06;4990033;28;123126;-60
2023/06/13 01:34:58;;;;;;;12.02;4.80;;;;;;;22.40;32.71;101312.28;4991379;28;113438;-60
2023/06/13 01:37:26;;;;;;;7.45;4.65;;;;;;;22.31;32.90;101317.50;4989593;28;114034;-60
2023/06/13 01:39:53;;;;;;;6.60;4.47;;;;;;;22.23;32.91;101311.88;4981129;28;123905;-61
2023/06/13 01:42:21;;;;;;;9.55;4.57;;;;;;;22.16;33.18;101313.41;4992050;28;122981;-61
2023/06/13 01:44:48;;;;;;;8.20;4.55;;;;;;;22.09;33.30;101304.13;4990931;28;114961;-60
2023/06/13 01:48:05;;;;;;;11.05;4.88;;;;;;;22.00;33.30;101308.50;4992039;28;112818;-60
2023/06/13 01:51:03;;;;;;;7.32;4.20;;;;;;;21.91;33.35;101312.81;4990057;28;123696;-59
2023/06/13 01:53:36;;;;;;;6.47;4.57;;;;;;;21.86;33.82;101309.66;4989407;28;124522;-60
2023/06/13 01:56:08;;;;;;;7.50;4.63;;;;;;;21.81;33.78;101313.72;4993293;28;114281;-60
2023/06/13 01:58:43;;;;;;;7.18;5.15;;;;;;;21.74;33.94;101306.16;4991984;28;113257;-60
2023/06/13 02:01:13;;;;;;;10.63;4.95;;;;;;;21.70;33.98;101309.25;4991922;28;123682;-60
2023/06/13 02:03:41;;;;;;;5.38;4.43;;;;;;;21.66;34.08;101307.78;4990422;28;124867;-60
2023/06/13 02:06:08;;;;;;;8.15;5.05;;;;;;;21.62;34.14;101311.75;4990263;28;114302;-60
2023/06/13 02:08:36;;;;;;;9.10;4.95;;;;;;;21.56;34.19;101303.19;4990881;28;114035;-60
2023/06/13 02:11:03;;;;;;;7.80;4.65;;;;;;;21.50;34.40;101303.69;4989715;28;124776;-60
2023/06/13 02:13:31;;;;;;;7.43;5.10;;;;;;;21.46;34.36;101296.88;4990755;28;123230;-60
2023/06/13 02:15:58;;;;;;;6.53;4.50;;;;;;;21.39;34.57;101295.63;4991298;28;115066;-60
2023/06/13 02:18:27;;;;;;;6.97;4.60;;;;;;;21.35;34.63;101302.28;4990910;28;114901;-60
2023/06/13 02:20:55;;;;;;;6.90;4.22;;;;;;;21.30;34.73;101301.78;4989847;28;124538;-60
2023/06/13 02:23:23;;;;;;;6.75;5.00;;;;;;;21.25;34.74;101304.00;4988444;28;124838;-59
2023/06/13 02:25:53;;;;;;;9.95;5.25;;;;;;;21.19;35.06;101306.25;4989841;28;113933;-59
2023/06/13 02:28:20;;;;;;;10.13;4.53;;;;;;;21.14;35.09;101303.06;4989432;28;113748;-60
2023/06/13 02:30:48;;;;;;;6.50;5.60;;;;;;;21.11;35.01;101297.91;4989708;28;123997;-60
2023/06/13 02:33:15;;;;;;;8.18;4.85;;;;;;;21.08;35.25;101308.97;4990418;28;123682;-59
2023/06/13 02:35:45;;;;;;;7.20;5.22;;;;;;;21.06;35.16;101304.66;4991245;28;114565;-60
2023/06/13 02:38:13;;;;;;;8.32;4.90;;;;;;;21.03;35.35;101303.09;4991904;28;113128;-60
2023/06/13 02:40:40;;;;;;;6.68;4.70;;;;;;;21.02;35.37;101303.22;4988745;28;123987;-62
2023/06/13 02:43:09;;;;;;;7.07;4.43;;;;;;;20.98;35.51;101302.59;4989756;28;124098;-60
2023/06/13 02:45:36;;;;;;;8.70;5.30;;;;;;;20.95;35.61;101308.25;4988474;28;115056;-60
2023/06/13 02:48:04;;;;;;;11.85;5.00;;;;;;;20.92;35.60;101303.13;4992531;28;113910;-60
2023/06/13 02:50:31;;;;;;;8.05;5.10;;;;;;;20.87;35.65;101306.19;4991115;28;123073;-61
2023/06/13 02:52:58;;;;;;;7.88;5.22;;;;;;;20.84;36.00;101302.91;4991897;28;124707;-61
2023/06/13 02:55:28;;;;;;;10.27;4.72;;;;;;;20.79;35.94;101309.50;4990160;28;113603;-61
2023/06/13 02:57:56;;;;;;;10.02;5.63;;;;;;;20.76;36.05;101304.38;4990243;28;114127;-61
2023/06/13 03:00:23;;;;;;;10.85;5.45;;;;;;;20.72;36.28;101300.22;4989650;28;125802;-60
2023/06/13 03:03:02;;;;;;;7.47;5.65;;;;;;;20.70;36.49;101304.00;4990194;28;123013;-61
2023/06/13 03:05:32;;;;;;;10.50;5.57;;;;;;;20.67;36.47;101298.88;4989508;28;114541;-60
2023/06/13 03:08:00;;;;;;;9.63;5.13;;;;;;;20.64;36.59;101294.56;4990106;28;114182;-61
2023/06/13 03:10:28;;;;;;;14.23;5.85;;;;;;;20.59;36.53;101299.47;4990102;28;123422;-61
2023/06/13 03:12:56;;;;;;;12.15;5.97;;;;;;;20.55;36.77;101295.28;4990226;28;123042;-61
2023/06/13 03:15:23;;;;;;;7.80;5.63;;;;;;;20.51;36.83;101307.28;4976608;28;113346;-61
2023/06/13 03:17:51;;;;;;;9.75;5.90;;;;;;;20.48;36.97;101304.84;4988438;28;114459;-61
2023/06/13 03:20:23;;;;;;;11.43;5.75;;;;;;;20.42;37.11;101304.34;4988584;28;123190;-61
2023/06/13 03:23:00;;;;;;;10.55;5.97;;;;;;;20.37;37.01;101303.84;4972790;28;123177;-59
2023/06/13 03:25:27;;;;;;;10.85;6.40;;;;;;;20.34;37.25;101304.09;4989667;28;113305;-59
2023/06/13 03:27:55;;;;;;;13.02;6.57;;;;;;;20.31;37.24;101315.09;4986740;28;114498;-60
2023/06/13 03:30:22;;;;;;;10.05;6.63;;;;;;;20.27;37.35;101308.25;4976662;28;124683;-60
2023/06/13 03:32:54;;;;;;;11.73;5.93;;;;;;;20.25;37.28;101304.81;4990197;28;123296;-59
2023/06/13 03:35:24;;;;;;;7.97;5.67;;;;;;;20.21;37.22;101303.34;4989162;28;116802;-60
2023/06/13 03:37:51;;;;;;;6.85;5.07;;;;;;;20.19;37.50;101307.97;4990214;28;112887;-61
2023/06/13 03:40:19;;;;;;;9.60;5.93;;;;;;;20.16;37.51;101305.53;4990407;28;123266;-61
2023/06/13 03:42:46;;;;;;;8.18;6.22;;;;;;;20.13;37.67;101305.78;4989947;28;122783;-61
2023/06/13 03:45:17;;;;;;;8.77;5.55;;;;;;;20.11;37.71;101302.34;4988694;28;114351;-61
2023/06/13 03:47:44;;;;;;;10.15;5.70;;;;;;;20.10;37.73;101311.38;4989295;28;113980;-61
2023/06/13 03:50:12;;;;;;;8.35;5.35;;;;;;;20.09;37.76;101298.94;4989136;28;123438;-61
2023/06/13 03:52:40;;;;;;;9.00;5.68;;;;;;;20.08;37.67;101297.19;4989903;28;123173;-61
2023/06/13 03:55:07;;;;;;;9.10;5.75;;;;;;;20.06;37.58;101293.78;4991717;28;115204;-61
2023/06/13 03:57:36;;;;;;;10.70;6.20;;;;;;;20.05;37.51;101297.47;5000296;28;114133;-61
2023/06/13 04:00:10;;;;;;;9.15;5.63;;;;;;;20.03;37.70;101289.50;4990175;28;123371;-61
2023/06/13 04:02:39;;;;;;;9.88;6.22;;;;;;;20.02;37.63;101303.91;4989167;28;124662;-61
2023/06/13 04:05:10;;;;;;;10.05;6.07;;;;;;;20.01;37.95;101297.69;4957595;28;115110;-60
2023/06/13 04:07:37;;;;;;;9.25;6.35;;;;;;;20.01;38.07;101303.06;4990382;28;113786;-60
2023/06/13 04:10:05;;;;;;;7.90;5.90;;;;;;;20.00;38.16;101301.38;4990063;28;123617;-60
2023/06/13 04:12:35;;;;;;;10.73;5.97;;;;;;;20.00;37.76;101312.13;4989895;28;122971;-60
2023/06/13 04:15:04;;;;;;;10.00;5.90;;;;;;;19.98;38.28;101297.91;4990432;28;114340;-61
2023/06/13 04:17:32;;;;;;;7.88;5.90;;;;;;;19.98;38.21;101308.66;4989386;28;114415;-60
2023/06/13 04:19:59;;;;;;;8.75;5.55;;;;;;;19.99;38.13;101314.94;4989545;28;123072;-60
2023/06/13 04:22:27;;;;;;;8.50;5.70;;;;;;;19.99;38.27;101310.41;4990168;28;124322;-60
2023/06/13 04:24:55;;;;;;;8.48;5.32;;;;;;;20.01;38.40;101319.19;4989280;28;114188;-60
2023/06/13 04:27:28;;;;;;;9.30;5.43;;;;;;;20.03;38.46;101317.25;4987869;28;114589;-60
2023/06/13 04:29:56;;;;;;;12.38;6.00;;;;;;;20.07;38.44;101322.41;4989197;28;125276;-60
2023/06/13 04:32:26;;;;;;;6.97;5.32;;;;;;;20.10;38.48;101322.13;4988822;28;122950;-60
2023/06/13 04:34:55;;;;;;;9.40;5.70;;;;;;;20.11;38.55;101318.50;4990242;28;114323;-60
2023/06/13 04:37:25;;;;;;;12.63;5.55;;;;;;;20.12;38.63;101320.22;4988710;28;114839;-60
2023/06/13 04:39:55;;;;;;;9.40;6.25;;;;;;;20.14;38.68;101312.88;4989945;28;123823;-60
2023/06/13 04:42:29;;;;;;;11.63;6.93;;;;;;;20.18;38.84;101314.34;4991231;28;124849;-61
2023/06/13 04:45:01;;;;;;;6.57;5.47;;;;;;;20.22;38.67;101321.19;4989451;28;115216;-60
2023/06/13 04:47:33;;;;;;;9.45;5.97;;;;;;;20.31;39.11;101325.84;4987553;28;115040;-60
2023/06/13 04:50:21;;;;;;;9.15;5.78;;;;;;;20.40;38.97;101314.38;4988380;28;124066;-60
2023/06/13 04:52:53;;;;;;;8.68;5.97;;;;;;;20.54;39.13;101331.25;4988912;28;123800;-60
2023/06/13 04:55:25;;;;;;;10.35;6.35;;;;;;;20.68;39.12;101333.75;4988796;28;114023;-60
2023/06/13 04:57:54;;;;;;;10.43;6.10;;;;;;;20.83;39.17;101330.78;4987886;28;114031;-60
2023/06/13 05:00:22;;;;;;;9.02;6.18;;;;;;;20.98;38.93;101334.91;4988893;28;123764;-60
2023/06/13 05:02:50;;;;;;;10.55;6.50;;;;;;;21.11;38.72;101332.09;4986664;28;124556;-61
2023/06/13 05:05:20;;;;;;;11.70;6.18;;;;;;;21.23;38.60;101335.59;4987371;28;114829;-60
2023/06/13 05:07:57;;;;;;;9.23;6.03;;;;;;;21.35;38.43;101334.59;4991196;28;113174;-60
2023/06/13 05:10:26;;;;;;;8.38;5.72;;;;;;;21.45;38.44;101338.25;4978278;28;124124;-60
2023/06/13 05:12:53;;;;;;;10.80;5.88;;;;;;;21.53;38.39;101337.63;4992491;28;124033;-61
2023/06/13 05:15:21;;;;;;;10.20;6.10;;;;;;;21.62;38.34;101333.31;4991286;28;114300;-61
2023/06/13 05:17:52;;;;;;;10.40;5.97;;;;;;;21.69;38.13;101334.50;4976538;28;113423;-61
2023/06/13 05:20:22;;;;;;;10.75;6.38;;;;;;;21.76;37.96;101335.72;4991859;28;124364;-61
2023/06/13 05:22:50;;;;;;;8.50;5.78;;;;;;;21.83;38.00;101336.91;4980948;28;124457;-60
2023/06/13 05:25:17;;;;;;;9.00;5.63;;;;;;;21.90;38.01;101343.47;4988082;28;114557;-62
2023/06/13 05:27:44;;;;;;;11.13;6.43;;;;;;;21.97;37.88;101338.41;4990793;28;113860;-60
2023/06/13 05:30:12;;;;;;;8.23;6.22;;;;;;;22.04;37.51;101333.31;4990142;28;124157;-61
2023/06/13 05:32:41;;;;;;;7.72;5.75;;;;;;;22.10;37.34;101338.22;4988610;28;123955;-61
2023/06/13 05:35:08;;;;;;;10.18;5.82;;;;;;;22.17;37.22;101334.00;4987831;28;115255;-60
2023/06/13 05:37:39;;;;;;;7.25;5.47;;;;;;;22.24;37.40;101332.47;4980672;28;114788;-61
2023/06/13 05:40:08;;;;;;;10.65;5.88;;;;;;;22.32;37.49;101332.72;4989168;28;124134;-61
2023/06/13 05:42:36;;;;;;;8.43;5.28;;;;;;;22.42;37.45;101338.16;4989925;28;123732;-61
2023/06/13 05:45:05;;;;;;;11.00;5.72;;;;;;;22.51;37.22;101339.19;4989333;28;115499;-61
2023/06/13 05:47:33;;;;;;;9.88;5.72;;;;;;;22.60;36.98;101341.06;4992372;28;113620;-61
2023/06/13 05:50:01;;;;;;;9.05;5.90;;;;;;;22.67;36.59;101336.00;4990854;28;124619;-61
2023/06/13 05:52:28;;;;;;;6.78;5.47;;;;;;;22.74;36.52;101337.16;4993373;28;124428;-61
2023/06/13 05:54:55;;;;;;;7.43;5.65;;;;;;;22.80;36.42;101330.34;4984485;28;114322;-61
2023/06/13 05:57:24;;;;;;;8.38;5.57;;;;;;;22.85;36.29;101333.47;4983362;28;114041;-61
2023/06/13 05:59:51;;;;;;;8.00;5.45;;;;;;;22.94;36.13;101335.34;4988455;28;124047;-61
2023/06/13 06:02:19;;;;;;;10.40;5.38;;;;;;;23.01;35.95;101339.22;4989742;28;123702;-61
2023/06/13 06:04:46;;;;;;;9.05;5.57;;;;;;;23.08;35.87;101335.00;4989618;28;114894;-61
2023/06/13 06:07:13;;;;;;;8.13;5.30;;;;;;;23.18;35.87;101339.59;4989269;28;114442;-61
2023/06/13 06:09:40;;;;;;;7.72;5.10;;;;;;;23.27;35.91;101338.75;4989735;28;123864;-61
2023/06/13 06:12:08;;;;;;;7.53;5.40;;;;;;;23.38;35.93;101345.88;4993084;28;123827;-61
2023/06/13 06:14:35;;;;;;;7.70;5.15;;;;;;;23.47;35.46;101345.00;4990545;28;114551;-61
2023/06/13 06:17:02;;;;;;;7.38;5.00;;;;;;;23.56;35.34;101343.31;4975964;28;112686;-62
2023/06/13 06:19:30;;;;;;;8.65;5.25;;;;;;;23.63;35.22;101344.47;4989252;28;124622;-61
2023/06/13 06:21:57;;;;;;;6.65;4.85;;;;;;;23.70;35.08;101329.38;4989828;28;124138;-61
2023/06/13 06:24:24;;;;;;;7.32;5.25;;;;;;;23.77;35.04;101335.94;4991071;28;115368;-61
2023/06/13 06:26:51;;;;;;;5.50;4.82;;;;;;;23.84;34.85;101334.38;4990324;28;115620;-62
2023/06/13 06:29:19;;;;;;;9.80;5.15;;;;;;;23.93;34.79;101345.34;4987781;28;123931;-61
2023/06/13 06:31:46;;;;;;;6.60;5.07;;;;;;;24.00;35.01;101341.06;4991925;28;123879;-61
2023/06/13 06:34:13;;;;;;;7.32;5.32;;;;;;;24.08;34.82;101341.19;4991025;28;115430;-61
2023/06/13 06:36:40;;;;;;;9.90;5.30;;;;;;;24.16;34.76;101344.00;4990031;28;113872;-61
2023/06/13 06:39:08;;;;;;;9.90;5.45;;;;;;;24.25;34.77;101335.03;4989035;28;124066;-61
2023/06/13 06:41:36;;;;;;;7.85;5.13;;;;;;;24.32;34.59;101334.44;4991298;28;123766;-61
2023/06/13 06:44:03;;;;;;;10.85;5.72;;;;;;;24.41;34.69;101333.53;4990522;28;113069;-62
2023/06/13 06:46:30;;;;;;;11.38;4.80;;;;;;;24.53;34.40;101343.25;4978123;28;113077;-62
2023/06/13 06:48:57;;;;;;;9.57;5.47;;;;;;;24.67;34.58;101345.44;4991444;28;124371;-62
2023/06/13 06:51:24;;;;;;;9.15;5.15;;;;;;;24.81;34.43;101345.97;4988524;28;124708;-61
2023/06/13 06:53:52;;;;;;;8.32;5.30;;;;;;;24.95;34.37;101342.75;4986452;28;113425;-61
2023/06/13 06:56:19;;;;;;;8.98;4.72;;;;;;;25.06;34.35;101347.97;4991591;28;114171;-61
2023/06/13 06:58:46;;;;;;;7.47;4.75;;;;;;;25.16;34.12;101338.94;4991180;28;123988;-61
2023/06/13 07:01:15;;;;;;;8.10;5.25;;;;;;;25.25;33.72;101348.88;4991866;28;123883;-61
2023/06/13 07:03:43;;;;;;;7.25;5.15;;;;;;;25.33;33.82;101345.41;4989674;28;114084;-62
2023/06/13 07:06:13;;;;;;;8.48;4.95;;;;;;;25.45;34.05;101350.47;4985716;28;114052;-61
2023/06/13 07:08:40;;;;;;;6.75;4.70;;;;;;;25.60;33.91;101352.66;4983451;28;124669;-61
2023/06/13 07:11:08;;;;;;;8.60;4.47;;;;;;;25.70;33.13;101350.69;4991183;28;123789;-61
2023/06/13 07:13:35;;;;;;;7.85;4.65;;;;;;;25.78;32.97;101345.31;4990288;28;115054;-61
2023/06/13 07:16:03;;;;;;;7.15;4.60;;;;;;;25.84;33.11;101342.00;4985456;28;115357;-61
2023/06/13 07:18:30;;;;;;;7.20;4.72;;;;;;;25.93;33.18;101336.66;4988913;28;124511;-61
2023/06/13 07:20:58;;;;;;;12.55;4.93;;;;;;;25.99;32.58;101346.88;4988589;28;123703;-61
2023/06/13 07:23:25;;;;;;;8.60;4.65;;;;;;;26.03;32.41;101348.28;4989283;28;114191;-61
2023/06/13 07:25:52;;;;;;;7.57;4.78;;;;;;;26.09;32.40;101353.09;4986883;28;114107;-62
2023/06/13 07:28:20;;;;;;;5.55;4.07;;;;;;;26.15;32.42;101355.16;4989564;28;123026;-61
2023/06/13 07:30:48;;;;;;;7.30;4.35;;;;;;;26.21;32.59;101351.81;4987315;28;123815;-61
2023/06/13 07:33:15;;;;;;;8.50;4.32;;;;;;;26.34;32.32;101353.25;4983624;28;114257;-61
2023/06/13 07:35:43;;;;;;;6.18;4.40;;;;;;;26.47;32.23;101355.53;4987850;28;113999;-62
2023/06/13 07:38:10;;;;;;;8.57;4.80;;;;;;;26.59;32.10;101349.69;4986566;28;124252;-61
2023/06/13 07:40:38;;;;;;;7.63;4.47;;;;;;;26.75;31.77;101359.78;4989076;28;123455;-61
2023/06/13 07:43:07;;;;;;;7.03;4.82;;;;;;;26.91;31.52;101348.13;4988694;28;114894;-61
2023/06/13 07:45:34;;;;;;;7.07;4.20;;;;;;;27.06;31.44;101347.50;4987626;28;113753;-61
2023/06/13 07:48:02;;;;;;;9.32;4.32;;;;;;;27.19;31.42;101350.59;4988473;28;125235;-61
2023/06/13 07:50:29;;;;;;;7.75;4.28;;;;;;;27.34;31.48;101348.97;4988191;28;123984;-61
2023/06/13 07:52:56;;;;;;;6.95;4.13;;;;;;;27.47;31.24;101347.66;4988350;28;114761;-61
2023/06/13 07:55:23;;;;;;;10.50;4.32;;;;;;;27.59;30.73;101351.72;4989640;28;114247;-61
2023/06/13 07:57:51;;;;;;;5.57;4.05;;;;;;;27.71;30.60;101344.94;4987967;28;124706;-61
2023/06/13 08:00:26;;;;;;;10.43;4.50;;;;;;;27.84;30.68;101340.84;4987840;28;124030;-61
2023/06/13 08:02:54;;;;;;;8.20;4.07;;;;;;;27.94;30.32;101338.84;4989582;28;114630;-62
2023/06/13 08:05:21;;;;;;;7.22;4.10;;;;;;;28.03;29.96;101337.81;4988156;28;114960;-63
2023/06/13 08:07:50;;;;;;;5.32;3.97;;;;;;;28.13;30.02;101338.47;4990641;28;124078;-62
2023/06/13 08:10:18;;;;;;;11.32;4.25;;;;;;;28.23;29.59;101345.63;4990067;28;122697;-63
2023/06/13 08:12:45;;;;;;;9.15;4.20;;;;;;;28.30;29.39;101343.91;4987566;28;114425;-62
2023/06/13 08:15:12;;;;;;;5.18;3.90;;;;;;;28.34;29.11;101339.78;4989276;28;112726;-63
2023/06/13 08:17:41;;;;;;;9.30;4.10;;;;;;;28.39;29.58;101342.84;4987459;28;123878;-63
2023/06/13 08:20:10;;;;;;;8.35;4.15;;;;;;;28.45;29.08;101336.69;4988096;28;123919;-63
2023/06/13 08:22:39;;;;;;;6.75;3.88;;;;;;;28.46;28.75;101341.16;4988612;28;114518;-63
2023/06/13 08:25:08;;;;;;;9.63;3.90;;;;;;;28.50;29.46;101356.13;4988654;28;114148;-63
2023/06/13 08:27:36;;;;;;;6.18;3.92;;;;;;;28.56;28.47;101337.38;4974590;28;124091;-61
2023/06/13 08:30:06;;;;;;;6.38;4.00;;;;;;;28.58;28.42;101340.81;4989485;28;122662;-62
2023/06/13 08:32:33;;;;;;;7.38;4.18;;;;;;;28.61;28.59;101343.16;4977603;28;114165;-62
2023/06/13 08:35:03;;;;;;;7.25;3.80;;;;;;;28.69;28.43;101343.16;4989187;28;113291;-62
2023/06/13 08:37:30;;;;;;;8.25;4.10;;;;;;;28.78;28.23;101347.50;4984990;28;124485;-62
2023/06/13 08:39:57;;;;;;;7.25;3.80;;;;;;;28.86;28.36;101344.78;4987135;28;124224;-62
2023/06/13 08:42:25;;;;;;;8.10;4.05;;;;;;;28.93;27.94;101345.75;4990842;28;114066;-62
2023/06/13 08:44:54;;;;;;;7.03;4.30;;;;;;;29.02;28.43;101342.97;4980353;28;113713;-62
2023/06/13 08:47:21;;;;;;;6.53;4.18;;;;;;;29.11;28.28;101331.84;4986922;28;123994;-61
2023/06/13 08:50:08;;;;;;;7.78;4.13;;;;;;;29.19;27.70;101339.16;4986317;28;124150;-62
2023/06/13 08:52:41;;;;;;;6.57;4.25;;;;;;;29.26;27.74;101345.59;4987291;28;115172;-62
2023/06/13 08:55:15;;;;;;;7.18;3.88;;;;;;;29.36;27.88;101333.59;4988514;28;115857;-64
2023/06/13 08:58:04;;;;;;;7.07;4.30;;;;;;;29.46;27.54;101342.41;4985078;28;123980;-64
2023/06/13 09:00:35;;;;;;;8.70;4.70;;;;;;;29.50;27.37;101327.38;4989013;28;123702;-63
2023/06/13 09:03:04;;;;;;;6.55;4.20;;;;;;;29.52;27.10;101333.50;4987816;28;114887;-63
2023/06/13 09:05:35;;;;;;;11.38;4.38;;;;;;;29.55;27.13;101332.28;4987325;28;114107;-63
2023/06/13 09:08:03;;;;;;;8.38;4.18;;;;;;;29.61;27.19;101335.13;4988182;28;124230;-64
2023/06/13 09:10:51;;;;;;;6.07;4.30;;;;;;;29.69;27.09;101329.59;4989416;28;122942;-63
2023/06/13 09:13:19;;;;;;;6.78;3.80;;;;;;;29.74;26.51;101336.41;4988863;28;114332;-63
2023/06/13 09:15:46;;;;;;;5.35;3.80;;;;;;;29.75;26.54;101328.06;4989663;28;114343;-62
2023/06/13 09:18:16;;;;;;;5.38;3.78;;;;;;;29.79;26.16;101328.53;4985887;28;124476;-62
2023/06/13 09:20:47;;;;;;;6.90;4.00;;;;;;;29.80;26.14;101331.09;4989745;28;123975;-62
2023/06/13 09:23:15;;;;;;;8.02;3.80;;;;;;;29.81;25.99;101334.66;4987875;28;114360;-62
2023/06/13 09:25:47;;;;;;;7.30;4.03;;;;;;;29.83;25.88;101327.13;4985408;28;114331;-62
2023/06/13 09:28:36;;;;;;;7.85;3.85;;;;;;;29.86;26.27;101329.50;4988673;28;123966;-62
2023/06/13 09:31:04;;;;;;;7.38;4.57;;;;;;;29.91;26.01;101337.97;4976337;28;123868;-63
2023/06/13 09:33:31;;;;;;;6.55;3.83;;;;;;;29.96;26.28;101321.03;4987383;28;114264;-62
2023/06/13 09:35:58;;;;;;;5.68;3.88;;;;;;;30.04;26.15;101332.72;4987589;28;114023;-62
2023/06/13 09:38:34;;;;;;;9.32;4.28;;;;;;;30.15;26.00;101338.78;4988684;28;122724;-62
2023/06/13 09:41:06;;;;;;;5.95;3.88;;;;;;;30.22;25.50;101328.81;4974160;28;123779;-63
2023/06/13 09:43:33;;;;;;;8.63;4.63;;;;;;;30.25;25.43;101322.94;4988128;28;115394;-63
2023/06/13 09:46:01;;;;;;;6.68;4.10;;;;;;;30.23;25.39;101319.56;4988617;28;113651;-63
2023/06/13 09:48:28;;;;;;;5.85;3.65;;;;;;;30.23;25.59;101314.09;4986963;28;124805;-64
2023/06/13 09:50:56;;;;;;;5.80;4.28;;;;;;;30.25;25.54;101322.94;4987695;28;125411;-63
2023/06/13 09:53:25;;;;;;;11.70;4.07;;;;;;;30.33;25.74;101320.19;4988646;28;114129;-63
2023/06/13 09:55:54;;;;;;;7.90;3.70;;;;;;;30.43;26.05;101312.53;4991471;28;114421;-63
2023/06/13 09:58:21;;;;;;;5.90;3.85;;;;;;;30.55;25.56;101317.53;4990295;28;123848;-64
2023/06/13 10:01:00;;;;;;;7.93;3.95;;;;;;;30.59;25.55;101314.25;4990064;28;124125;-63
2023/06/13 10:03:28;;;;;;;5.22;4.05;;;;;;;30.64;25.32;101316.38;4991025;28;115344;-63
2023/06/13 10:06:00;;;;;;;6.75;3.85;;;;;;;30.69;25.20;101316.69;4979097;28;113949;-63
2023/06/13 10:08:28;;;;;;;6.82;3.67;;;;;;;30.75;24.85;101318.63;4989384;28;123987;-64
2023/06/13 10:10:59;;;;;;;5.10;3.60;;;;;;;30.81;24.50;101312.41;4990472;28;124026;-63
2023/06/13 10:13:32;;;;;;;6.05;4.00;;;;;;;30.84;24.26;101312.03;4989576;28;114396;-62
2023/06/13 10:16:00;;;;;;;7.32;3.90;;;;;;;30.82;23.89;101303.16;4971292;28;113746;-62
2023/06/13 10:18:31;;;;;;;6.28;3.58;;;;;;;30.80;24.16;101315.34;4984041;28;124087;-63
2023/06/13 10:20:59;;;;;;;7.43;3.80;;;;;;;30.81;24.18;101306.09;4985738;28;124922;-63
2023/06/13 10:23:30;;;;;;;4.60;3.92;;;;;;;30.78;23.95;101310.06;4989055;28;113685;-63
2023/06/13 10:26:06;;;;;;;5.13;3.97;;;;;;;30.78;24.60;101309.19;4991388;28;113162;-62
2023/06/13 10:28:48;;;;;;;5.38;3.60;;;;;;;30.88;24.17;101311.66;4991702;28;124357;-63
2023/06/13 10:31:29;;;;;;;5.43;3.53;;;;;;;30.97;23.81;101305.06;4989604;28;124488;-62
2023/06/13 10:34:11;;;;;;;5.05;3.88;;;;;;;30.95;23.46;101299.78;4990235;28;115626;-63
2023/06/13 10:36:41;;;;;;;7.97;3.65;;;;;;;30.92;23.09;101296.59;4982889;28;114651;-63
2023/06/13 10:39:43;;;;;;;5.25;3.70;;;;;;;30.85;23.25;101304.66;4984277;28;124272;-63
2023/06/13 10:42:31;;;;;;;6.18;3.80;;;;;;;30.84;23.28;101303.81;4983327;28;124263;-64
2023/06/13 10:45:08;;;;;;;7.13;3.58;;;;;;;30.83;22.92;101293.91;4984969;28;114739;-64
2023/06/13 10:47:37;;;;;;;4.68;3.35;;;;;;;30.84;22.74;101295.63;4988426;28;113006;-64
2023/06/13 10:50:05;;;;;;;5.72;3.50;;;;;;;30.89;22.85;101296.91;4987530;28;123990;-64
2023/06/13 10:52:32;;;;;;;5.90;3.50;;;;;;;30.96;22.88;101292.41;4986761;28;124526;-63
2023/06/13 10:55:01;;;;;;;4.60;3.28;;;;;;;31.01;22.60;101296.25;4990846;28;114902;-63
2023/06/13 10:57:48;;;;;;;6.60;3.60;;;;;;;31.03;22.31;101293.34;4988582;28;114620;-64
2023/06/13 11:00:27;;;;;;;4.30;3.20;;;;;;;31.05;22.28;101297.56;4990380;28;125318;-64
2023/06/13 11:02:58;;;;;;;5.18;3.40;;;;;;;31.10;22.20;101288.78;4988773;28;123758;-64
2023/06/13 11:05:27;;;;;;;6.00;3.58;;;;;;;31.19;22.20;101282.16;4990256;28;114313;-63
2023/06/13 11:08:14;;;;;;;6.43;3.53;;;;;;;31.28;22.15;101284.75;4987703;28;114304;-64
2023/06/13 11:10:45;;;;;;;7.28;3.70;;;;;;;31.31;22.04;101284.38;4991245;28;124461;-63
2023/06/13 11:13:23;;;;;;;6.25;3.42;;;;;;;31.35;21.81;101278.31;4979468;28;124567;-64
2023/06/13 11:15:55;;;;;;;9.00;3.70;;;;;;;31.37;22.05;101283.59;4991852;28;114303;-64
2023/06/13 11:18:22;;;;;;;5.88;3.78;;;;;;;31.37;22.07;101278.13;4974839;28;114136;-64
2023/06/13 11:20:50;;;;;;;4.70;3.65;;;;;;;31.42;22.24;101275.66;4987830;28;124130;-63
2023/06/13 11:23:18;;;;;;;4.80;3.65;;;;;;;31.48;21.97;101269.41;4991106;28;125062;-63
2023/06/13 11:25:46;;;;;;;6.60;3.60;;;;;;;31.50;21.93;101272.78;4987953;28;115909;-63
2023/06/13 11:28:14;;;;;;;6.22;3.65;;;;;;;31.49;21.35;101265.59;4989798;28;114911;-62
2023/06/13 11:30:43;;;;;;;4.53;3.58;;;;;;;31.46;22.09;101271.47;4987798;28;124509;-63